Latest Weather Observations for Port Lincoln Airport

IDS60801

Issued at 7:01 am CDT Wednesday 10 February 2016 (issued every 30 minutes, with the page automatically refreshed every 10 minutes)

About weather observations | Map of weather stations | Latest weather observations for SA | Other Formats
Station Details ID: 018192 Name: PORT LINCOLN AWS Lat: -34.60 Lon: 135.88 Height: 8.5 m
Data from the previous 72 hours. | See also: Recent months at Port Lincoln Airport
Date/Time
CDT
Temp
°C
App
Temp
°C
Dew
Point
Rel
Hum
%
Delta-T
°C
Wind Press
QNH
hPa
Press
MSL
hPa
Rain
since 9 am
mm
Dir
 
Spd
km/h
Gust
km/h
Spd
kts
Gust
kts
10/07:00am 16.0 15.2 15.2 95 0.5 SE 13 17 7 9 1016.0 1016.0 0.0
10/06:38am 15.7 14.7 14.7 94 0.6 ESE 13 13 7 7 1015.5 1015.5 0.0
10/06:30am 15.5 14.5 14.5 94 0.6 ESE 13 15 7 8 1015.3 1015.3 0.0
10/06:00am 15.4 14.7 14.4 94 0.6 ESE 11 13 6 7 1015.3 1015.3 0.0
10/05:30am 15.3 14.2 14.2 93 0.6 SE 13 15 7 8 1015.4 1015.4 0.0
10/05:00am 15.7 15.4 14.4 92 0.7 SE 9 13 5 7 1015.2 1015.2 0.0
10/04:30am 17.0 16.1 15.9 93 0.6 SSE 15 17 8 9 1015.4 1015.4 0.0
10/04:00am 17.1 15.9 16.0 93 0.6 SSE 17 19 9 10 1015.6 1015.6 0.0
10/03:30am 17.0 16.0 15.7 92 0.8 SSE 15 19 8 10 1015.5 1015.5 0.0
10/03:00am 16.8 16.2 15.7 93 0.6 SE 13 15 7 8 1015.7 1015.7 0.0
10/02:30am 17.1 16.7 16.3 95 0.5 SSE 13 15 7 8 1015.8 1015.8 0.0
10/02:00am 15.5 16.6 14.7 95 0.5 SE 2 6 1 3 1016.0 1016.0 0.0
10/01:30am 14.9 16.1 13.8 93 0.6 CALM 0 4 0 2 1016.1 1016.1 0.0
10/01:00am 15.5 15.6 13.9 90 0.9 ESE 6 7 3 4 1016.4 1016.4 0.0
10/12:30am 16.1 16.8 14.5 90 0.9 S 4 6 2 3 1016.6 1016.6 0.0
10/12:00am 16.0 16.4 13.8 87 1.2 SW 4 7 2 4 1016.7 1016.7 0.0
 
Date/Time
CDT
Temp
°C
App
Temp
°C
Dew
Point
Rel
Hum
%
Delta-T
°C
Wind Press
QNH
hPa
Press
MSL
hPa
Rain
since 9 am
mm
Dir
 
Spd
km/h
Gust
km/h
Spd
kts
Gust
kts
09/11:30pm 16.9 17.2 14.5 86 1.4 SW 6 6 3 3 1016.8 1016.8 0.0
09/11:00pm 17.1 17.0 13.8 81 1.9 SSW 7 9 4 5 1017.2 1017.2 0.0
09/10:30pm 17.0 16.9 13.3 79 2.1 SSW 6 9 3 5 1017.2 1017.2 0.0
09/10:00pm 18.3 18.1 14.6 79 2.1 SSE 9 13 5 7 1016.9 1016.9 0.0
09/09:30pm 18.7 20.2 14.6 77 2.4 CALM 0 0 0 0 1016.5 1016.5 0.0
09/09:00pm 19.4 19.7 14.4 73 2.9 SSW 6 9 3 5 1016.4 1016.4 0.0
09/08:30pm 20.7 19.9 16.1 75 2.8 S 15 17 8 9 1016.2 1016.2 0.0
09/08:00pm 22.3 20.5 15.9 67 3.9 S 20 24 11 13 1016.3 1016.3 0.0
09/07:30pm 24.0 22.1 15.2 58 5.3 S 19 22 10 12 1016.1 1016.1 0.0
09/07:00pm 25.0 23.1 14.2 51 6.4 SSE 17 22 9 12 1016.1 1016.1 0.0
09/06:30pm 25.1 22.4 13.0 47 7.0 SE 19 22 10 12 1016.1 1016.1 0.0
09/06:00pm 25.1 22.3 13.3 48 6.9 SE 20 24 11 13 1016.2 1016.2 0.0
09/05:30pm 25.0 22.1 13.9 50 6.5 SE 22 26 12 14 1016.2 1016.2 0.0
09/05:00pm 25.3 22.7 13.8 49 6.8 SE 20 26 11 14 1016.4 1016.4 0.0
09/04:30pm 24.8 22.5 14.6 53 6.1 SE 20 24 11 13 1016.7 1016.7 0.0
09/04:00pm 24.5 22.3 16.0 59 5.2 SSE 22 26 12 14 1017.2 1017.2 0.0
09/03:30pm 23.9 22.1 15.9 61 4.8 SSE 20 26 11 14 1017.4 1017.4 0.0
09/03:00pm 23.7 21.6 16.2 63 4.6 SE 22 28 12 15 1017.7 1017.7 0.0
09/02:30pm 23.2 21.5 16.3 65 4.2 SE 20 28 11 15 1017.8 1017.8 0.0
09/02:00pm 23.1 22.2 15.9 64 4.3 SE 15 20 8 11 1018.3 1018.3 0.0
09/01:30pm 22.5 21.6 16.8 70 3.5 SE 17 24 9 13 1018.7 1018.7 0.0
09/01:00pm 22.0 20.7 16.9 73 3.1 SSE 19 26 10 14 1019.0 1019.0 0.0
09/12:30pm 22.2 21.1 17.3 74 3.0 SSE 19 24 10 13 1019.3 1019.3 0.0
09/12:15pm 22.1 20.7 17.0 73 3.1 SSE 20 26 11 14 1019.4 1019.4 0.0
09/12:00pm 21.8 20.7 17.2 75 2.8 SE 19 26 10 14 1019.5 1019.5 0.0
09/11:30am 21.6 20.7 16.8 74 2.9 SE 17 22 9 12 1019.7 1019.7 0.0
09/11:00am 21.1 19.7 16.5 75 2.8 SE 19 24 10 13 1019.9 1019.9 0.0
09/10:30am 20.9 19.9 16.5 76 2.7 E 17 24 9 13 1019.8 1019.8 0.0
09/10:00am 20.7 19.4 16.7 78 2.4 ESE 19 28 10 15 1019.9 1019.9 0.0
09/09:30am 19.9 18.1 15.5 76 2.6 ESE 19 24 10 13 1020.2 1020.2 0.0
09/09:06am 19.6 18.0 16.1 80 2.1 ESE 19 24 10 13 1020.3 1020.3 0.0
09/09:00am 19.7 17.9 16.0 79 2.2 ESE 20 28 11 15 1020.3 1020.3 0.0
09/08:30am 19.0 16.6 15.3 79 2.2 ESE 22 28 12 15 1020.2 1020.2 0.0
09/08:00am 18.6 16.6 15.5 82 1.8 ESE 20 26 11 14 1020.2 1020.2 0.0
09/07:30am 18.2 16.1 15.3 83 1.7 ESE 20 26 11 14 1020.1 1020.1 0.0
09/07:00am 17.9 15.7 15.0 83 1.7 ESE 20 26 11 14 1019.9 1019.9 0.0
09/06:30am 17.9 15.8 14.8 82 1.8 ESE 19 24 10 13 1020.0 1020.0 0.0
09/06:00am 17.9 15.3 14.8 82 1.8 ESE 22 28 12 15 1020.0 1020.0 0.0
09/05:30am 17.9 15.7 14.8 82 1.8 ESE 20 26 11 14 1019.9 1019.9 0.0
09/05:00am 17.9 15.7 14.8 82 1.8 ESE 20 30 11 16 1020.0 1020.0 0.0
09/04:30am 17.9 14.8 14.6 81 1.9 ESE 24 32 13 17 1020.0 1020.0 0.0
09/04:00am 18.0 15.0 14.7 81 1.9 ESE 24 32 13 17 1020.1 1020.1 0.0
09/03:30am 18.0 15.3 14.5 80 2.0 ESE 22 30 12 16 1020.3 1020.3 0.0
09/03:00am 18.1 15.0 14.4 79 2.1 ESE 24 32 13 17 1020.5 1020.5 0.0
09/02:30am 18.2 15.2 14.7 80 2.0 SE 24 32 13 17 1020.8 1020.8 0.0
09/02:00am 18.0 14.4 14.3 79 2.1 ESE 26 33 14 18 1021.2 1021.2 0.0
09/01:30am 18.3 15.4 15.0 81 1.9 ESE 24 32 13 17 1021.6 1021.6 0.0
09/01:00am 18.2 14.7 14.5 79 2.1 ESE 26 32 14 17 1021.8 1021.8 0.0
09/12:30am 18.2 15.2 14.7 80 2.0 ESE 24 33 13 18 1022.0 1022.0 0.0
09/12:00am 17.9 14.4 14.6 81 1.9 ESE 26 37 14 20 1022.1 1022.1 0.0
 
Date/Time
CDT
Temp
°C
App
Temp
°C
Dew
Point
Rel
Hum
%
Delta-T
°C
Wind Press
QNH
hPa
Press
MSL
hPa
Rain
since 9 am
mm
Dir
 
Spd
km/h
Gust
km/h
Spd
kts
Gust
kts
08/11:30pm 18.3 14.2 15.0 81 1.9 SE 30 37 16 20 1022.2 1022.2 0.0
08/11:00pm 18.9 15.5 15.8 82 1.8 SE 28 35 15 19 1022.3 1022.3 0.0
08/10:30pm 18.4 16.4 16.4 88 1.2 SSE 22 30 12 16 1022.4 1022.4 0.0
08/10:00pm 18.2 14.9 16.0 87 1.3 SSE 28 33 15 18 1022.2 1022.2 0.0
08/09:30pm 18.3 14.6 16.1 87 1.3 SSE 30 35 16 19 1022.1 1022.1 0.0
08/09:00pm 18.5 14.3 16.3 87 1.3 SSE 33 41 18 22 1021.8 1021.8 0.0
08/08:30pm 18.7 14.5 16.1 85 1.5 SSE 33 39 18 21 1021.6 1021.6 0.0
08/08:00pm 19.4 15.6 15.7 79 2.2 SSE 30 35 16 19 1021.5 1021.5 0.0
08/07:30pm 20.3 16.5 15.7 75 2.7 SSE 30 35 16 19 1021.5 1021.5 0.0
08/07:00pm 21.0 17.0 15.1 69 3.5 SSE 30 35 16 19 1021.3 1021.3 0.0
08/06:30pm 21.7 18.0 15.1 66 3.9 SSE 28 33 15 18 1021.3 1021.3 0.0
08/06:00pm 21.8 18.0 14.7 64 4.2 SSE 28 35 15 19 1021.5 1021.5 0.0
08/05:30pm 22.2 17.9 14.3 61 4.6 SE 30 35 16 19 1021.6 1021.6 0.0
08/05:00pm 22.1 18.0 13.7 59 4.9 SE 28 35 15 19 1021.8 1021.8 0.0
08/04:30pm 22.3 17.9 14.2 60 4.7 SSE 30 37 16 20 1022.1 1022.1 0.0
08/04:00pm 22.1 17.4 14.2 61 4.6 SE 32 39 17 21 1022.3 1022.3 0.0
08/03:30pm 21.7 17.0 13.3 59 4.8 SE 30 37 16 20 1022.6 1022.6 0.0
08/03:00pm 21.8 16.9 13.7 60 4.7 SE 32 41 17 22 1022.7 1022.7 0.0
08/02:30pm 21.9 17.3 13.5 59 4.8 SE 30 39 16 21 1022.9 1022.9 0.0
08/02:00pm 21.6 17.2 14.0 62 4.4 SE 30 41 16 22 1023.1 1023.1 0.0
08/01:30pm 20.5 15.4 13.0 62 4.2 SE 32 41 17 22 1023.4 1023.4 0.0
08/01:00pm 20.8 15.6 12.8 60 4.5 SE 32 41 17 22 1023.6 1023.6 0.0
08/12:30pm 20.2 15.4 12.9 63 4.1 SE 30 39 16 21 1023.9 1023.9 0.0
08/12:00pm 20.3 15.6 13.3 64 4.0 SE 30 39 16 21 1024.2 1024.2 0.0
08/11:30am 19.9 15.3 13.4 66 3.7 SE 30 35 16 19 1024.2 1024.2 0.0
08/11:00am 19.7 15.3 12.9 65 3.8 SE 28 35 15 19 1024.3 1024.3 0.0
08/10:30am 18.7 14.6 12.7 68 3.3 SE 26 33 14 18 1024.4 1024.4 0.0
08/10:00am 18.9 14.5 12.9 68 3.4 ESE 28 35 15 19 1024.3 1024.3 0.0
08/09:30am 18.6 14.2 12.8 69 3.2 SE 28 35 15 19 1024.2 1024.2 0.0
08/09:00am 18.1 13.5 12.3 69 3.2 SE 28 35 15 19 1024.0 1024.0 0.0
08/08:30am 18.0 14.3 12.7 71 2.9 SE 24 35 13 19 1023.7 1023.7 0.0
08/08:00am 17.7 14.1 13.2 75 2.5 SE 24 32 13 17 1023.4 1023.4 0.0
08/07:30am 17.5 14.2 12.8 74 2.6 SE 22 32 12 17 1023.1 1023.1 0.0
08/07:00am 17.5 14.4 13.4 77 2.3 SSE 22 32 12 17 1022.8 1022.8 0.0
08/06:30am 17.6 14.2 13.7 78 2.2 SSE 24 32 13 17 1022.4 1022.4 0.0
08/06:00am 17.6 14.5 13.5 77 2.3 SSE 22 28 12 15 1022.3 1022.3 0.0
08/05:30am 17.7 14.7 13.8 78 2.2 SE 22 28 12 15 1021.9 1021.9 0.0
08/05:00am 17.7 14.7 13.8 78 2.2 SE 22 28 12 15 1021.8 1021.8 0.0
08/04:30am 17.6 14.7 13.9 79 2.1 SSE 22 30 12 16 1021.8 1021.8 0.0
08/04:00am 17.5 14.0 13.4 77 2.3 SSE 24 30 13 16 1021.9 1021.9 0.0
08/03:30am 17.5 14.9 13.8 79 2.1 SE 20 26 11 14 1022.0 1022.0 0.0
08/03:00am 17.5 14.5 13.6 78 2.2 SE 22 32 12 17 1022.1 1022.1 0.0
08/02:30am 17.7 14.0 13.8 78 2.2 SSE 26 30 14 16 1022.1 1022.1 0.0
08/02:00am 17.7 14.0 13.8 78 2.2 SE 26 33 14 18 1022.2 1022.2 0.0
08/01:30am 17.5 14.1 13.6 78 2.2 SSE 24 35 13 19 1022.5 1022.5 0.0
08/01:00am 17.6 13.6 14.1 80 2.0 SSE 28 35 15 19 1022.5 1022.5 0.0
08/12:30am 17.7 13.4 14.4 81 1.9 SSE 30 35 16 19 1022.5 1022.5 0.0
08/12:00am 18.0 14.3 14.9 82 1.8 SSE 28 35 15 19 1022.5 1022.5 0.0
 
Date/Time
CDT
Temp
°C
App
Temp
°C
Dew
Point
Rel
Hum
%
Delta-T
°C
Wind Press
QNH
hPa
Press
MSL
hPa
Rain
since 9 am
mm
Dir
 
Spd
km/h
Gust
km/h
Spd
kts
Gust
kts
07/11:57pm 18.1 14.5 15.2 83 1.7 SSE 28 35 15 19 1022.5 1022.5 0.0
07/11:39pm 18.0 13.6 15.1 83 1.7 SSE 32 41 17 22 1022.4 1022.4 0.0
07/11:30pm 17.9 13.5 15.2 84 1.6 SSE 32 37 17 20 1022.3 1022.3 0.0
07/11:00pm 18.0 13.5 15.4 85 1.5 SSE 33 41 18 22 1022.3 1022.3 0.0
07/10:57pm 18.0 13.5 15.4 85 1.5 SSE 33 41 18 22 1022.2 1022.2 0.0
07/10:30pm 18.0 14.2 15.8 87 1.3 SSE 30 37 16 20 1022.2 1022.2 0.0
07/10:00pm 17.9 14.0 15.5 86 1.4 SSE 30 39 16 21 1021.9 1021.9 0.0
07/09:53pm 17.9 13.6 15.5 86 1.4 SSE 32 39 17 21 1021.8 1021.8 0.0
07/09:30pm 18.1 14.2 15.4 84 1.6 SSE 30 39 16 21 1021.4 1021.4 0.0
07/09:00pm 18.2 14.5 15.1 82 1.8 S 28 35 15 19 1021.2 1021.2 0.0
07/08:30pm 18.5 14.8 15.0 80 2.0 S 28 33 15 18 1020.8 1020.8 0.0
07/08:00pm 19.0 14.9 14.9 77 2.4 S 30 39 16 21 1020.4 1020.4 0.0
07/07:30pm 19.8 15.3 15.0 74 2.8 S 32 37 17 20 1019.9 1019.9 0.0
07/07:00pm 20.8 16.6 15.6 72 3.1 S 32 39 17 21 1019.5 1019.5 0.0
07/06:30pm 21.1 16.5 14.7 67 3.7 SSW 32 39 17 21 1019.4 1019.4 0.0
07/06:00pm 21.7 17.0 14.4 63 4.3 S 32 37 17 20 1019.2 1019.2 0.0
07/05:30pm 22.2 18.0 14.6 62 4.5 S 30 35 16 19 1019.3 1019.3 0.0
07/05:00pm 22.3 18.1 13.6 58 5.0 S 28 35 15 19 1019.1 1019.1 0.0
07/04:30pm 23.0 19.5 14.6 59 5.0 S 26 33 14 18 1019.1 1019.1 0.0
07/04:00pm 22.2 18.2 14.1 60 4.7 S 28 35 15 19 1019.2 1019.2 0.0
07/03:30pm 22.9 19.8 15.7 64 4.3 SSE 26 32 14 17 1019.2 1019.2 0.0
07/03:00pm 22.0 18.5 14.6 63 4.3 SE 26 32 14 17 1019.1 1019.1 0.0
07/02:30pm 22.7 19.0 15.0 61 4.6 S 28 35 15 19 1019.4 1019.4 0.0
07/02:00pm 23.6 20.4 15.4 60 4.9 S 26 35 14 19 1019.5 1019.5 0.0
07/01:30pm 22.3 18.9 14.7 62 4.5 S 26 30 14 16 1019.6 1019.6 0.0
07/01:00pm 22.5 19.5 14.9 62 4.5 S 24 32 13 17 1019.6 1019.6 0.0
07/12:30pm 22.1 20.2 15.2 65 4.1 SE 19 28 10 15 1019.8 1019.8 0.0
07/12:00pm 21.2 19.5 14.8 67 3.8 SE 17 24 9 13 1019.9 1019.9 0.0
07/11:30am 21.1 19.1 15.0 68 3.6 SE 19 28 10 15 1019.9 1019.9 0.0
07/11:00am 20.8 19.0 14.5 67 3.7 SSE 17 28 9 15 1020.0 1020.0 0.0
07/10:30am 20.4 18.8 15.0 71 3.2 SSE 17 26 9 14 1020.0 1020.0 0.0
07/10:00am 20.6 18.6 15.4 72 3.1 SSE 20 26 11 14 1019.9 1019.9 0.0
07/09:30am 19.9 18.5 15.5 76 2.6 SSE 17 24 9 13 1019.7 1019.7 0.0
07/09:00am 19.2 17.1 15.3 78 2.3 SSE 20 26 11 14 1019.6 1019.6 0.0
07/08:30am 18.6 16.4 14.9 79 2.1 SSE 20 26 11 14 1019.4 1019.4 0.0
07/08:00am 19.2 17.4 16.1 82 1.8 SSE 20 26 11 14 1019.0 1019.0 0.0
07/07:30am 17.6 15.6 14.9 84 1.6 SSE 19 22 10 12 1018.7 1018.7 0.0

Other Formats:

Comma delimited format used in spreadsheet applications
http://www.bom.gov.au/fwo/IDS60801/IDS60801.95661.axf

JavaScript Object Notation format (JSON) in row-major order
http://www.bom.gov.au/fwo/IDS60801/IDS60801.95661.json